Time;durP1;ratioP1;P1;durP2;ratioP2;P2;SDS_P1;SDS_P2;PMS_P1;PMS_P2;Temp;Humidity;BMP_temperature;BMP_pressure;BME280_temperature;BME280_humidity;BME280_pressure;Samples;Min_cycle;Max_cycle;Signal;HPM_P1;HPM_P2
2021/09/19 00:01:43;;;;;;;12.82;3.90;;;28.70;88.00;;;;;;5045030;28;20033;-47
2021/09/19 00:04:10;;;;;;;12.80;3.47;;;28.70;88.00;;;;;;5044699;28;20041;-47
2021/09/19 00:06:37;;;;;;;22.08;3.83;;;28.80;88.00;;;;;;5044784;28;20322;-48
2021/09/19 00:09:03;;;;;;;15.48;3.75;;;28.70;87.90;;;;;;5044693;28;20061;-47
2021/09/19 00:11:30;;;;;;;17.48;3.83;;;28.70;88.10;;;;;;5044712;28;20056;-46
2021/09/19 00:13:57;;;;;;;18.77;3.97;;;28.70;88.10;;;;;;5044507;28;20021;-50
2021/09/19 00:16:23;;;;;;;13.32;4.00;;;28.70;88.10;;;;;;5044695;28;20029;-48
2021/09/19 00:18:50;;;;;;;20.40;5.93;;;28.70;88.10;;;;;;5044395;28;20017;-48
2021/09/19 00:21:16;;;;;;;24.10;8.70;;;28.70;88.20;;;;;;5044715;28;20071;-47
2021/09/19 00:23:43;;;;;;;30.05;13.15;;;28.70;88.10;;;;;;5044443;28;20021;-47
2021/09/19 00:26:10;;;;;;;32.33;13.15;;;28.70;88.10;;;;;;5044442;28;20041;-48
2021/09/19 00:28:36;;;;;;;23.40;9.80;;;28.70;88.20;;;;;;5044387;28;20033;-47
2021/09/19 00:31:03;;;;;;;23.05;7.45;;;28.70;88.20;;;;;;5044586;28;20327;-47
2021/09/19 00:33:29;;;;;;;19.75;6.20;;;28.70;88.30;;;;;;5044032;28;20030;-49
2021/09/19 00:35:56;;;;;;;18.88;6.95;;;28.70;88.30;;;;;;5044390;28;20337;-48
2021/09/19 00:38:22;;;;;;;14.77;5.78;;;28.70;88.30;;;;;;5044213;28;20306;-47
2021/09/19 00:40:49;;;;;;;14.02;5.53;;;28.70;88.30;;;;;;5043016;28;20048;-48
2021/09/19 00:43:16;;;;;;;21.85;7.60;;;28.70;88.30;;;;;;5043967;28;20025;-46
2021/09/19 00:45:42;;;;;;;19.77;6.72;;;28.70;88.30;;;;;;5044054;28;20085;-49
2021/09/19 00:48:09;;;;;;;16.77;5.68;;;28.60;88.40;;;;;;5044044;28;20040;-47
2021/09/19 00:50:36;;;;;;;21.25;5.78;;;28.60;88.40;;;;;;5043869;28;20025;-46
2021/09/19 00:53:03;;;;;;;25.75;6.78;;;28.60;88.40;;;;;;5043984;28;20237;-46
2021/09/19 00:55:29;;;;;;;22.27;6.57;;;28.60;88.50;;;;;;5043813;28;20021;-49
2021/09/19 00:57:57;;;;;;;20.15;6.70;;;28.60;88.70;;;;;;5043708;28;20025;-48
2021/09/19 01:00:26;;;;;;;23.05;6.03;;;28.60;88.90;;;;;;5043793;28;20028;-47
2021/09/19 01:02:55;;;;;;;30.20;6.22;;;28.60;89.20;;;;;;5043887;28;20036;-49
2021/09/19 01:05:22;;;;;;;27.17;6.40;;;28.60;89.10;;;;;;5043716;28;20009;-50
2021/09/19 01:07:51;;;;;;;24.20;6.55;;;28.60;89.20;;;;;;5043700;28;20101;-47
2021/09/19 01:10:21;;;;;;;19.23;6.72;;;28.50;89.30;;;;;;5043628;28;20108;-51
2021/09/19 01:12:52;;;;;;;21.92;6.68;;;28.50;89.30;;;;;;5043912;28;20203;-48
2021/09/19 01:15:19;;;;;;;19.75;6.25;;;28.50;89.40;;;;;;5043686;28;20075;-54
2021/09/19 01:17:47;;;;;;;16.20;6.22;;;28.50;89.50;;;;;;5043927;28;20356;-47
2021/09/19 01:20:15;;;;;;;27.45;7.57;;;28.50;89.70;;;;;;5043532;28;20079;-47
2021/09/19 01:22:57;;;;;;;18.23;7.95;;;28.50;89.80;;;;;;5043537;28;20018;-47
2021/09/19 01:25:23;;;;;;;;;;;28.50;89.90;;;;;;5044221;28;20034;-47
2021/09/19 01:27:50;;;;;;;19.35;9.32;;;28.50;89.90;;;;;;5043575;28;19916;-49
2021/09/19 01:30:17;;;;;;;18.13;8.88;;;28.40;90.00;;;;;;5043551;28;20022;-47
2021/09/19 01:32:44;;;;;;;20.23;7.88;;;28.40;90.00;;;;;;5043860;28;20025;-45
2021/09/19 01:35:11;;;;;;;23.73;7.55;;;28.40;90.00;;;;;;5043550;28;20037;-46
2021/09/19 01:37:39;;;;;;;21.70;6.93;;;28.40;90.00;;;;;;5043818;28;20021;-46
2021/09/19 01:40:07;;;;;;;21.23;7.38;;;28.40;90.10;;;;;;5043302;28;20088;-49
2021/09/19 01:42:33;;;;;;;13.73;6.90;;;28.40;90.10;;;;;;5043897;28;20056;-53
2021/09/19 01:45:00;;;;;;;16.70;7.10;;;28.40;90.00;;;;;;5043410;28;20026;-46
2021/09/19 01:47:27;;;;;;;18.73;7.65;;;28.40;90.00;;;;;;5047044;28;20293;-48
2021/09/19 01:49:54;;;;;;;14.55;8.35;;;28.40;90.10;;;;;;5047251;28;20037;-46
2021/09/19 01:52:21;;;;;;;21.98;7.20;;;28.40;90.10;;;;;;5047669;28;20290;-47
2021/09/19 01:54:48;;;;;;;11.45;6.85;;;28.40;90.10;;;;;;5047050;28;20040;-50
2021/09/19 01:57:20;;;;;;;12.55;6.05;;;28.40;90.10;;;;;;5047356;28;20026;-46
2021/09/19 01:59:50;;;;;;;15.82;5.85;;;28.40;90.00;;;;;;5047076;28;20036;-44
2021/09/19 02:02:17;;;;;;;12.75;6.30;;;28.40;90.00;;;;;;5047539;28;20032;-47
2021/09/19 02:04:45;;;;;;;12.30;6.03;;;28.40;89.90;;;;;;5046986;28;20085;-45
2021/09/19 02:07:12;;;;;;;11.50;6.22;;;28.40;89.90;;;;;;5047130;28;20029;-47
2021/09/19 02:09:39;;;;;;;16.23;6.55;;;28.40;89.90;;;;;;5046795;28;20052;-47
2021/09/19 02:12:06;;;;;;;15.30;5.90;;;28.40;89.90;;;;;;5047080;28;20359;-47
2021/09/19 02:14:33;;;;;;;12.73;5.53;;;28.40;89.90;;;;;;5045523;28;20309;-46
2021/09/19 02:17:00;;;;;;;12.85;5.82;;;28.40;89.90;;;;;;5047107;28;20222;-46
2021/09/19 02:19:27;;;;;;;14.60;5.60;;;28.40;89.90;;;;;;5046722;28;20021;-47
2021/09/19 02:21:53;;;;;;;15.57;5.32;;;28.40;89.80;;;;;;5047018;28;20033;-46
2021/09/19 02:24:20;;;;;;;10.60;4.85;;;28.40;89.80;;;;;;5046568;28;20025;-47
2021/09/19 02:26:47;;;;;;;14.13;5.03;;;28.40;89.60;;;;;;5046887;28;20071;-49
2021/09/19 02:29:13;;;;;;;9.80;4.50;;;28.40;89.60;;;;;;5046667;28;20017;-46
2021/09/19 02:31:40;;;;;;;13.70;4.63;;;28.40;89.60;;;;;;5046624;28;20071;-50
2021/09/19 02:34:06;;;;;;;13.60;4.35;;;28.40;89.50;;;;;;5046478;28;20075;-47
2021/09/19 02:36:33;;;;;;;14.40;4.07;;;28.40;89.50;;;;;;5046614;28;20229;-46
2021/09/19 02:38:59;;;;;;;10.60;4.00;;;28.40;89.30;;;;;;5046165;28;20222;-47
2021/09/19 02:41:26;;;;;;;13.10;4.10;;;28.30;89.20;;;;;;5045360;28;20025;-50
2021/09/19 02:43:53;;;;;;;11.07;3.15;;;28.30;89.10;;;;;;5046302;28;20029;-51
2021/09/19 02:46:19;;;;;;;7.72;3.45;;;28.30;89.00;;;;;;5046336;28;20056;-46
2021/09/19 02:48:46;;;;;;;14.18;3.35;;;28.30;89.10;;;;;;5046245;28;20017;-46
2021/09/19 02:51:12;;;;;;;11.15;3.40;;;28.30;89.00;;;;;;5046309;28;20210;-49
2021/09/19 02:53:39;;;;;;;6.63;2.85;;;28.20;88.90;;;;;;5046108;28;20026;-46
2021/09/19 02:56:05;;;;;;;8.70;3.00;;;28.20;88.90;;;;;;5046310;28;20175;-46
2021/09/19 02:58:34;;;;;;;6.00;3.10;;;28.20;88.80;;;;;;5044662;28;20049;-46
2021/09/19 03:01:02;;;;;;;5.43;3.10;;;28.20;88.90;;;;;;5045907;28;20337;-45
2021/09/19 03:03:28;;;;;;;6.68;3.28;;;28.20;88.80;;;;;;5045930;28;20013;-45
2021/09/19 03:05:55;;;;;;;9.43;2.70;;;28.20;88.80;;;;;;5045897;28;20025;-47
2021/09/19 03:08:21;;;;;;;10.07;2.47;;;28.10;88.50;;;;;;5045576;28;20022;-46
2021/09/19 03:10:48;;;;;;;6.82;2.63;;;28.10;88.50;;;;;;5045751;28;20056;-44
2021/09/19 03:13:14;;;;;;;8.90;2.47;;;28.10;88.40;;;;;;5045865;28;20036;-46
2021/09/19 03:15:41;;;;;;;4.10;2.40;;;28.10;88.70;;;;;;5045507;28;20025;-45
2021/09/19 03:18:08;;;;;;;5.10;2.38;;;28.10;88.80;;;;;;5045580;28;20269;-45
2021/09/19 03:20:35;;;;;;;5.43;2.05;;;28.10;88.60;;;;;;5044420;28;20017;-46
2021/09/19 03:23:01;;;;;;;4.40;2.08;;;28.10;88.50;;;;;;5045421;28;20026;-48
2021/09/19 03:25:28;;;;;;;8.70;2.50;;;28.10;88.30;;;;;;5045569;28;20017;-46
2021/09/19 03:27:54;;;;;;;6.13;2.08;;;28.10;88.20;;;;;;5045509;28;20326;-46
2021/09/19 03:30:21;;;;;;;6.20;1.88;;;28.10;88.20;;;;;;5045331;28;20312;-46
2021/09/19 03:32:48;;;;;;;5.13;1.90;;;28.10;88.30;;;;;;5045284;28;20025;-47
2021/09/19 03:35:15;;;;;;;4.28;2.00;;;28.10;88.20;;;;;;5045347;28;20026;-46
2021/09/19 03:37:41;;;;;;;4.38;2.22;;;28.10;88.10;;;;;;5045651;28;20060;-46
2021/09/19 03:40:10;;;;;;;7.65;2.17;;;28.10;88.20;;;;;;5045337;28;20091;-47
2021/09/19 03:42:37;;;;;;;5.30;2.30;;;28.10;88.10;;;;;;5045699;28;20048;-45
2021/09/19 03:45:04;;;;;;;6.20;2.05;;;28.00;88.00;;;;;;5045069;28;20028;-47
2021/09/19 03:47:31;;;;;;;4.95;1.95;;;28.00;88.00;;;;;;5045546;28;20310;-48
2021/09/19 03:49:58;;;;;;;5.45;2.40;;;28.00;88.10;;;;;;5045014;28;20100;-48
2021/09/19 03:52:24;;;;;;;8.15;4.50;;;28.00;88.00;;;;;;5045041;28;20022;-49
2021/09/19 03:54:51;;;;;;;4.32;2.95;;;28.00;87.90;;;;;;5044976;28;20041;-45
2021/09/19 03:57:17;;;;;;;6.30;2.55;;;28.10;88.00;;;;;;5044802;28;20075;-45
2021/09/19 03:59:44;;;;;;;5.82;2.70;;;28.00;87.90;;;;;;5044846;28;20030;-47
2021/09/19 04:02:10;;;;;;;5.47;2.92;;;28.00;87.90;;;;;;5045104;28;20237;-51
2021/09/19 04:04:37;;;;;;;3.92;2.38;;;28.00;87.90;;;;;;5044817;28;20033;-46
2021/09/19 04:07:03;;;;;;;9.75;2.67;;;28.00;87.90;;;;;;5045014;28;20021;-54
2021/09/19 04:09:30;;;;;;;5.60;2.20;;;28.00;87.90;;;;;;5044116;28;20056;-45
2021/09/19 04:11:56;;;;;;;4.43;2.42;;;28.00;87.90;;;;;;5045027;28;20032;-45
2021/09/19 04:14:23;;;;;;;4.30;1.90;;;27.90;87.90;;;;;;5044661;28;20037;-46
2021/09/19 04:16:50;;;;;;;5.13;2.13;;;27.90;87.80;;;;;;5043357;28;20257;-48
2021/09/19 04:19:17;;;;;;;6.57;2.20;;;27.90;87.80;;;;;;5044551;28;20024;-48
2021/09/19 04:21:44;;;;;;;3.95;1.90;;;27.90;87.80;;;;;;5044725;28;20029;-47
2021/09/19 04:24:10;;;;;;;4.35;2.10;;;27.90;87.70;;;;;;5044348;28;20025;-48
2021/09/19 04:26:37;;;;;;;8.18;2.17;;;27.90;87.80;;;;;;5044586;28;20021;-48
2021/09/19 04:29:04;;;;;;;3.75;2.45;;;27.90;87.80;;;;;;5044360;28;20027;-49
2021/09/19 04:31:30;;;;;;;5.15;1.92;;;27.90;87.70;;;;;;5044429;28;20323;-47
2021/09/19 04:33:58;;;;;;;6.90;2.00;;;27.90;87.70;;;;;;5044363;28;20314;-49
2021/09/19 04:36:24;;;;;;;5.00;2.13;;;27.90;87.70;;;;;;5044551;28;20013;-46
2021/09/19 04:38:51;;;;;;;6.07;2.53;;;27.90;87.70;;;;;;5044083;28;20335;-45
2021/09/19 04:41:18;;;;;;;3.90;2.30;;;27.90;87.60;;;;;;5044535;28;20179;-46
2021/09/19 04:43:44;;;;;;;3.47;2.22;;;27.90;87.70;;;;;;5044172;28;20128;-47
2021/09/19 04:46:11;;;;;;;6.93;2.13;;;27.90;87.70;;;;;;5044129;28;20022;-47
2021/09/19 04:48:38;;;;;;;4.07;2.20;;;27.80;87.60;;;;;;5044212;28;20026;-46
2021/09/19 04:51:04;;;;;;;4.68;2.17;;;27.80;87.50;;;;;;5044215;28;20063;-52
2021/09/19 04:53:31;;;;;;;3.63;1.80;;;27.90;87.60;;;;;;5043806;28;20029;-49
2021/09/19 04:55:57;;;;;;;5.90;2.22;;;27.90;87.50;;;;;;5044081;28;20051;-47
2021/09/19 04:58:24;;;;;;;6.57;3.60;;;27.90;87.40;;;;;;5043985;28;20030;-47
2021/09/19 05:00:51;;;;;;;4.97;2.67;;;27.90;87.30;;;;;;5043800;28;20044;-50
2021/09/19 05:03:17;;;;;;;7.18;2.75;;;27.90;87.30;;;;;;5044027;28;20037;-46
2021/09/19 05:05:44;;;;;;;5.80;2.42;;;27.90;87.20;;;;;;5043828;28;20025;-47
2021/09/19 05:08:11;;;;;;;10.38;3.60;;;27.90;87.10;;;;;;5043788;28;20289;-54
2021/09/19 05:10:37;;;;;;;6.65;3.58;;;27.90;87.00;;;;;;5043651;28;20168;-46
2021/09/19 05:13:04;;;;;;;9.00;4.72;;;27.90;87.00;;;;;;5043818;28;20033;-48
2021/09/19 05:15:31;;;;;;;13.55;4.93;;;27.90;86.90;;;;;;5043714;28;20048;-46
2021/09/19 05:17:57;;;;;;;15.77;6.80;;;27.90;87.00;;;;;;5043492;28;20230;-48
2021/09/19 05:20:24;;;;;;;21.80;12.05;;;27.90;86.90;;;;;;5043726;28;20009;-46
2021/09/19 05:22:50;;;;;;;20.45;12.93;;;27.90;86.90;;;;;;5047837;28;20226;-48
2021/09/19 05:25:17;;;;;;;24.63;14.20;;;27.90;86.80;;;;;;5047745;28;20014;-46
2021/09/19 05:27:43;;;;;;;21.35;14.65;;;27.90;87.00;;;;;;5048280;28;20040;-46
2021/09/19 05:30:10;;;;;;;28.75;17.08;;;27.90;87.20;;;;;;5047748;28;20041;-47
2021/09/19 05:32:37;;;;;;;28.85;19.10;;;27.90;87.30;;;;;;5047914;28;20029;-45
2021/09/19 05:35:05;;;;;;;30.25;18.35;;;27.90;87.30;;;;;;5047658;28;20026;-45
2021/09/19 05:37:32;;;;;;;33.80;20.50;;;27.90;87.40;;;;;;5047467;28;20028;-46
2021/09/19 05:39:58;;;;;;;29.00;19.38;;;27.90;87.40;;;;;;5047466;28;20028;-46
2021/09/19 05:42:25;;;;;;;30.27;20.02;;;27.90;87.50;;;;;;5047875;28;20022;-49
2021/09/19 05:44:51;;;;;;;30.13;20.00;;;27.90;87.50;;;;;;5047475;28;20250;-46
2021/09/19 05:47:18;;;;;;;29.02;18.65;;;27.80;87.40;;;;;;5047664;28;20294;-47
2021/09/19 05:49:44;;;;;;;23.80;17.20;;;27.90;87.50;;;;;;5047421;28;20104;-45
2021/09/19 05:52:11;;;;;;;23.05;16.25;;;27.90;87.50;;;;;;5047737;28;20022;-44
2021/09/19 05:54:38;;;;;;;22.55;14.05;;;27.90;87.70;;;;;;5047225;28;20099;-45
2021/09/19 05:57:04;;;;;;;25.80;12.68;;;27.90;87.70;;;;;;5047142;28;20365;-49
2021/09/19 05:59:31;;;;;;;19.30;9.88;;;27.80;87.50;;;;;;5047168;28;20093;-45
2021/09/19 06:01:57;;;;;;;13.07;8.63;;;27.80;87.50;;;;;;5047311;28;20324;-45
2021/09/19 06:04:24;;;;;;;12.52;7.40;;;27.80;87.40;;;;;;5047118;28;20044;-47
2021/09/19 06:06:50;;;;;;;10.73;6.72;;;27.80;87.40;;;;;;5047307;28;20025;-49
2021/09/19 06:09:17;;;;;;;7.93;5.60;;;27.80;87.50;;;;;;5046751;28;20053;-49
2021/09/19 06:11:44;;;;;;;12.05;5.53;;;27.80;87.40;;;;;;5047171;28;20025;-51
2021/09/19 06:14:11;;;;;;;10.85;5.30;;;27.80;87.40;;;;;;5046906;28;20341;-46
2021/09/19 06:16:37;;;;;;;7.00;4.65;;;27.80;87.50;;;;;;5046901;28;20041;-47
2021/09/19 06:19:04;;;;;;;7.00;4.70;;;27.80;87.40;;;;;;5046838;28;20059;-49
2021/09/19 06:21:32;;;;;;;8.05;4.25;;;27.80;87.40;;;;;;5046682;28;20014;-49
2021/09/19 06:23:58;;;;;;;10.77;4.25;;;27.80;87.40;;;;;;5046731;28;20324;-47
2021/09/19 06:26:25;;;;;;;13.70;6.20;;;27.80;88.00;;;;;;5047054;28;20312;-49
2021/09/19 06:28:51;;;;;;;9.52;5.80;;;27.80;87.50;;;;;;5046699;28;20049;-47
2021/09/19 06:31:18;;;;;;;15.05;6.65;;;27.80;87.50;;;;;;5046570;28;20021;-47
2021/09/19 06:33:45;;;;;;;13.65;6.07;;;27.70;87.50;;;;;;5046348;28;20263;-46
2021/09/19 06:36:11;;;;;;;16.40;5.95;;;27.70;87.50;;;;;;5046835;28;20032;-53
2021/09/19 06:38:38;;;;;;;11.95;5.10;;;27.70;87.60;;;;;;5046469;28;20043;-46
2021/09/19 06:41:04;;;;;;;11.55;4.78;;;27.70;87.70;;;;;;5046385;28;20022;-46
2021/09/19 06:43:31;;;;;;;11.48;5.35;;;27.70;87.80;;;;;;5046376;28;20052;-46
2021/09/19 06:45:57;;;;;;;11.65;7.03;;;27.70;87.90;;;;;;5046383;28;20064;-47
2021/09/19 06:48:24;;;;;;;11.45;7.45;;;27.70;87.90;;;;;;5046098;28;20063;-47
2021/09/19 06:50:50;;;;;;;14.77;8.18;;;27.70;88.00;;;;;;5046288;28;20053;-48
2021/09/19 06:53:17;;;;;;;20.83;8.55;;;27.60;87.90;;;;;;5046250;28;20049;-47
2021/09/19 06:55:43;;;;;;;20.42;8.45;;;27.70;88.00;;;;;;5046078;28;20314;-45
2021/09/19 06:58:10;;;;;;;13.25;8.55;;;27.70;88.10;;;;;;5046049;28;20084;-46
2021/09/19 07:00:36;;;;;;;19.58;7.30;;;27.70;88.20;;;;;;5046095;28;20026;-47
2021/09/19 07:03:03;;;;;;;11.27;6.53;;;27.60;88.20;;;;;;5046040;28;20018;-50
2021/09/19 07:05:30;;;;;;;9.93;5.90;;;27.60;88.20;;;;;;5045917;28;20018;-50
2021/09/19 07:07:56;;;;;;;12.23;5.90;;;27.60;88.20;;;;;;5045841;28;20123;-50
2021/09/19 07:10:23;;;;;;;15.05;5.20;;;27.60;88.20;;;;;;5045641;28;20068;-47
2021/09/19 07:12:49;;;;;;;9.07;4.95;;;27.60;88.30;;;;;;5045859;28;20028;-52
2021/09/19 07:15:16;;;;;;;8.63;4.88;;;27.60;88.40;;;;;;5045819;28;20333;-48
2021/09/19 07:17:42;;;;;;;12.68;4.95;;;27.60;88.40;;;;;;5046023;28;20071;-48
2021/09/19 07:20:09;;;;;;;7.10;3.45;;;27.60;88.40;;;;;;5045728;28;20053;-50
2021/09/19 07:22:36;;;;;;;5.28;3.35;;;27.50;88.40;;;;;;5046124;28;20020;-55
2021/09/19 07:25:04;;;;;;;10.63;3.83;;;27.50;88.50;;;;;;5045462;28;20032;-49
2021/09/19 07:27:31;;;;;;;8.05;3.17;;;27.50;88.70;;;;;;5045935;28;20409;-50
2021/09/19 07:29:57;;;;;;;6.10;3.33;;;27.50;88.70;;;;;;5045618;28;20036;-51
2021/09/19 07:32:24;;;;;;;10.48;3.03;;;27.40;89.20;;;;;;5045873;28;20028;-50
2021/09/19 07:34:51;;;;;;;6.90;2.92;;;27.50;88.80;;;;;;5045450;28;20079;-47
2021/09/19 07:37:19;;;;;;;8.75;3.00;;;27.40;88.70;;;;;;5045714;28;20017;-54
2021/09/19 07:39:46;;;;;;;7.18;2.60;;;27.40;88.70;;;;;;5045254;28;20032;-54
2021/09/19 07:42:13;;;;;;;9.32;2.83;;;27.50;88.80;;;;;;5045804;28;20297;-54
2021/09/19 07:44:40;;;;;;;4.97;2.30;;;27.50;88.70;;;;;;5044536;28;20330;-54
2021/09/19 07:47:07;;;;;;;4.65;2.30;;;27.50;88.80;;;;;;5045465;28;20084;-56
2021/09/19 07:49:39;;;;;;;5.32;2.67;;;27.40;88.80;;;;;;5045146;28;20105;-55
2021/09/19 07:52:07;;;;;;;5.97;2.60;;;27.40;88.90;;;;;;5045537;28;20041;-56
2021/09/19 07:54:34;;;;;;;5.72;2.90;;;27.50;88.90;;;;;;5044859;28;20097;-55
2021/09/19 07:57:01;;;;;;;8.20;2.85;;;27.50;88.90;;;;;;5045185;28;20021;-56
2021/09/19 07:59:27;;;;;;;8.68;2.92;;;27.50;88.90;;;;;;5044944;28;20025;-56
2021/09/19 08:01:54;;;;;;;14.02;4.20;;;27.50;88.90;;;;;;5045019;28;20013;-54
2021/09/19 08:04:20;;;;;;;7.35;4.28;;;27.50;89.00;;;;;;5044837;28;20037;-57
2021/09/19 08:06:47;;;;;;;10.10;5.30;;;27.50;88.90;;;;;;5044660;28;20017;-57
2021/09/19 08:09:13;;;;;;;10.75;5.38;;;27.50;88.90;;;;;;5044603;28;20045;-59
2021/09/19 08:11:40;;;;;;;7.95;4.85;;;27.50;89.00;;;;;;5044809;28;20036;-56
2021/09/19 08:14:07;;;;;;;10.05;4.50;;;27.50;89.10;;;;;;5044685;28;20055;-55
2021/09/19 08:16:39;;;;;;;8.52;4.03;;;27.50;89.20;;;;;;5044906;28;20403;-56
2021/09/19 08:19:11;;;;;;;6.93;3.47;;;27.50;89.10;;;;;;5044683;28;20032;-57
2021/09/19 08:21:39;;;;;;;8.05;3.25;;;27.50;89.10;;;;;;5044877;28;20028;-47
2021/09/19 08:24:07;;;;;;;6.78;3.08;;;27.50;89.00;;;;;;5044335;28;20021;-50
2021/09/19 08:26:35;;;;;;;6.68;3.55;;;27.50;89.00;;;;;;5044596;28;20328;-51
2021/09/19 08:29:01;;;;;;;6.78;3.17;;;27.50;89.00;;;;;;5044386;28;20060;-50
2021/09/19 08:31:28;;;;;;;9.82;3.08;;;27.50;88.90;;;;;;5044476;28;20302;-47
2021/09/19 08:33:54;;;;;;;7.18;2.97;;;27.50;88.80;;;;;;5044347;28;20013;-46
2021/09/19 08:36:21;;;;;;;4.93;2.92;;;27.40;88.80;;;;;;5044438;28;20049;-48
2021/09/19 08:38:48;;;;;;;4.45;2.70;;;27.40;88.70;;;;;;5044039;28;20199;-47
2021/09/19 08:41:15;;;;;;;9.38;3.10;;;27.40;88.70;;;;;;5044487;28;20266;-48
2021/09/19 08:43:43;;;;;;;4.63;2.70;;;27.40;88.70;;;;;;5044137;28;20024;-50
2021/09/19 08:46:12;;;;;;;5.32;3.05;;;27.40;88.70;;;;;;5044077;28;20028;-52
2021/09/19 08:48:39;;;;;;;5.55;2.85;;;27.40;88.80;;;;;;5044118;28;20029;-48
2021/09/19 08:51:06;;;;;;;7.13;2.60;;;27.50;88.80;;;;;;5043946;28;20060;-49
2021/09/19 08:53:32;;;;;;;7.28;2.72;;;27.40;88.70;;;;;;5043901;28;20025;-52
2021/09/19 08:55:59;;;;;;;5.30;2.90;;;27.40;88.80;;;;;;5044086;28;20033;-45
2021/09/19 08:58:27;;;;;;;5.78;2.67;;;27.40;88.80;;;;;;5043974;28;20378;-48
2021/09/19 09:00:54;;;;;;;7.35;3.10;;;27.40;88.90;;;;;;5043799;28;20034;-52
2021/09/19 09:03:23;;;;;;;7.10;2.83;;;27.40;88.90;;;;;;5043932;28;20024;-48
2021/09/19 09:06:04;;;;;;;6.85;3.00;;;27.40;88.90;;;;;;5043801;28;20026;-51
2021/09/19 09:08:32;;;;;;;11.48;2.90;;;27.40;89.00;;;;;;5044088;28;20044;-54
2021/09/19 09:11:03;;;;;;;7.15;2.85;;;27.40;89.10;;;;;;5043840;28;20202;-56
2021/09/19 09:13:31;;;;;;;4.57;2.40;;;27.40;89.10;;;;;;5043649;28;20028;-56
2021/09/19 09:16:01;;;;;;;7.32;2.80;;;27.40;89.30;;;;;;5043783;28;20205;-57
2021/09/19 09:18:35;;;;;;;6.15;2.55;;;27.30;89.70;;;;;;5043775;28;20314;-55
2021/09/19 09:21:06;;;;;;;7.57;2.92;;;27.20;90.00;;;;;;5043600;28;20033;-57
2021/09/19 09:23:35;;;;;;;5.43;2.60;;;27.20;90.00;;;;;;5043681;28;20317;-56
2021/09/19 09:26:08;;;;;;;8.95;2.55;;;27.30;90.00;;;;;;5043741;28;20302;-50
2021/09/19 09:28:58;;;;;;;8.85;2.42;;;27.30;89.80;;;;;;5043913;28;20055;-48
2021/09/19 09:31:41;;;;;;;8.43;2.90;;;27.30;89.70;;;;;;5043791;28;20033;-47
2021/09/19 09:34:09;;;;;;;6.45;2.28;;;27.30;89.60;;;;;;5043818;28;20128;-53
2021/09/19 09:36:39;;;;;;;6.63;2.10;;;27.30;89.50;;;;;;5043308;28;20041;-47
2021/09/19 09:39:20;;;;;;;6.00;2.30;;;27.30;89.50;;;;;;5043828;28;20089;-54
2021/09/19 09:41:47;;;;;;;5.93;2.47;;;27.30;89.50;;;;;;5043841;28;20022;-47
2021/09/19 09:44:46;;;;;;;4.05;2.03;;;27.20;89.60;;;;;;5043394;28;20017;-47
2021/09/19 09:47:24;;;;;;;5.82;2.20;;;27.20;89.60;;;;;;5043341;28;20037;-47
2021/09/19 09:50:02;;;;;;;3.55;2.50;;;27.20;89.60;;;;;;5043445;28;20025;-46
2021/09/19 09:52:34;;;;;;;5.60;2.90;;;27.30;89.60;;;;;;5043780;28;20030;-47
2021/09/19 09:55:10;;;;;;;7.57;2.78;;;27.30;89.50;;;;;;5043397;28;20245;-47
2021/09/19 09:57:36;;;;;;;9.20;2.53;;;27.30;89.50;;;;;;5043746;28;20318;-47
2021/09/19 10:00:10;;;;;;;10.80;3.83;;;27.30;89.50;;;;;;5043282;28;20022;-51
2021/09/19 10:02:41;;;;;;;7.93;4.00;;;27.30;89.50;;;;;;5043764;28;20038;-47
2021/09/19 10:05:11;;;;;;;7.95;3.58;;;27.30;89.30;;;;;;5043134;28;20024;-48
2021/09/19 10:07:39;;;;;;;10.45;3.10;;;27.30;89.30;;;;;;5045632;28;20026;-46
2021/09/19 10:10:08;;;;;;;5.38;2.50;;;27.30;89.40;;;;;;5047021;28;20325;-49
2021/09/19 10:12:36;;;;;;;6.30;2.58;;;27.20;89.40;;;;;;5047287;28;20249;-48
2021/09/19 10:15:05;;;;;;;5.53;2.50;;;27.20;89.50;;;;;;5047077;28;20017;-45
2021/09/19 10:17:32;;;;;;;4.57;2.33;;;27.20;89.40;;;;;;5047210;28;20333;-47
2021/09/19 10:20:01;;;;;;;7.20;2.30;;;27.20;89.30;;;;;;5046723;28;20017;-45
2021/09/19 10:22:32;;;;;;;4.97;2.50;;;27.20;89.20;;;;;;5047262;28;20241;-46
2021/09/19 10:25:00;;;;;;;6.32;2.28;;;27.20;89.30;;;;;;5046836;28;20381;-46
2021/09/19 10:27:34;;;;;;;5.40;2.58;;;27.20;89.20;;;;;;5047255;28;20041;-49
2021/09/19 10:30:11;;;;;;;11.43;2.78;;;27.20;89.20;;;;;;5046638;28;20025;-46
2021/09/19 10:32:39;;;;;;;4.25;2.17;;;27.20;89.10;;;;;;5046915;28;20037;-48
2021/09/19 10:35:18;;;;;;;5.95;2.40;;;27.20;89.20;;;;;;5046691;28;20064;-48
2021/09/19 10:37:55;;;;;;;8.20;2.97;;;27.20;89.20;;;;;;5046181;28;20033;-54
2021/09/19 10:40:40;;;;;;;4.93;2.38;;;27.20;89.10;;;;;;5046528;28;20024;-51
2021/09/19 10:43:21;;;;;;;9.32;2.80;;;27.20;89.10;;;;;;5046312;28;20337;-46
2021/09/19 10:45:52;;;;;;;6.53;2.50;;;27.20;89.10;;;;;;5046404;28;20033;-47
2021/09/19 10:48:32;;;;;;;6.53;2.47;;;27.20;89.20;;;;;;5046176;28;20075;-49
2021/09/19 10:51:07;;;;;;;7.10;2.38;;;27.20;89.20;;;;;;5046555;28;20032;-46
2021/09/19 10:53:47;;;;;;;6.75;2.78;;;27.20;89.20;;;;;;5046040;28;20025;-46
2021/09/19 10:56:14;;;;;;;5.45;2.33;;;27.20;89.20;;;;;;5046277;28;20088;-46
2021/09/19 10:58:46;;;;;;;10.52;2.60;;;27.20;89.30;;;;;;5046018;28;20017;-52
2021/09/19 11:01:17;;;;;;;6.05;2.30;;;27.20;89.30;;;;;;5046195;28;20306;-45
2021/09/19 11:03:45;;;;;;;5.35;2.40;;;27.20;89.30;;;;;;5046015;28;20026;-46
2021/09/19 11:06:23;;;;;;;7.43;2.60;;;27.20;89.30;;;;;;5045799;28;20021;-46
2021/09/19 11:08:50;;;;;;;5.93;2.80;;;27.20;89.50;;;;;;5045723;28;20025;-47
2021/09/19 11:11:22;;;;;;;7.93;3.97;;;27.20;89.40;;;;;;5046030;28;20132;-51
2021/09/19 11:13:55;;;;;;;;;;;27.20;89.40;;;;;;5046245;28;20021;-46
2021/09/19 11:16:30;;;;;;;10.95;3.40;;;27.20;89.50;;;;;;5045891;28;19976;-47
2021/09/19 11:19:00;;;;;;;5.10;2.78;;;27.20;89.50;;;;;;5044428;28;20025;-44
2021/09/19 11:21:26;;;;;;;7.05;2.80;;;27.20;89.50;;;;;;5045892;28;20021;-45
2021/09/19 11:24:02;;;;;;;10.40;3.33;;;27.20;89.40;;;;;;5045749;28;20016;-47
2021/09/19 11:26:36;;;;;;;4.40;2.92;;;27.20;89.40;;;;;;5045769;28;20029;-49
2021/09/19 11:29:06;;;;;;;10.30;3.08;;;27.20;89.40;;;;;;5045639;28;20009;-48
2021/09/19 11:31:34;;;;;;;12.05;3.38;;;27.20;89.40;;;;;;5045527;28;20026;-50
2021/09/19 11:34:20;;;;;;;6.22;3.85;;;27.20;89.40;;;;;;5045455;28;20036;-53
2021/09/19 11:36:53;;;;;;;12.23;4.68;;;27.20;89.40;;;;;;5045425;28;20214;-48
2021/09/19 11:39:20;;;;;;;12.70;5.55;;;27.20;89.50;;;;;;5045340;28;20017;-51
2021/09/19 11:41:48;;;;;;;14.23;6.68;;;27.20;89.50;;;;;;5045659;28;20054;-51
2021/09/19 11:44:16;;;;;;;19.63;9.52;;;27.20;89.50;;;;;;5045429;28;20123;-46
2021/09/19 11:46:45;;;;;;;15.68;8.68;;;27.20;89.50;;;;;;5045479;28;20354;-46
2021/09/19 11:49:12;;;;;;;17.23;6.13;;;27.20;89.60;;;;;;5045124;28;20256;-48
2021/09/19 11:51:41;;;;;;;13.95;4.68;;;27.20;89.70;;;;;;5045492;28;20037;-46
2021/09/19 11:54:12;;;;;;;10.52;5.45;;;27.20;89.90;;;;;;5045239;28;20018;-47
2021/09/19 11:56:41;;;;;;;17.83;5.57;;;27.20;90.00;;;;;;5045071;28;20030;-52
2021/09/19 11:59:11;;;;;;;10.00;4.90;;;27.10;90.00;;;;;;5045003;28;20009;-47
2021/09/19 12:01:40;;;;;;;13.20;5.00;;;27.10;90.00;;;;;;5045169;28;20026;-49
2021/09/19 12:04:13;;;;;;;12.02;4.43;;;27.10;90.10;;;;;;5044690;28;20076;-47
2021/09/19 12:06:41;;;;;;;15.25;4.60;;;27.10;90.10;;;;;;5044686;28;20021;-48
2021/09/19 12:09:10;;;;;;;10.05;4.18;;;27.10;90.10;;;;;;5044614;28;20360;-49
2021/09/19 12:11:49;;;;;;;13.40;4.97;;;27.20;90.20;;;;;;5044815;28;20036;-48
2021/09/19 12:14:21;;;;;;;13.73;5.55;;;27.20;90.20;;;;;;5044679;28;20029;-51
2021/09/19 12:17:08;;;;;;;17.20;5.95;;;27.20;90.20;;;;;;5044719;28;20013;-45
2021/09/19 12:19:36;;;;;;;16.92;5.95;;;27.20;90.30;;;;;;5044560;28;20036;-56
2021/09/19 12:22:07;;;;;;;13.02;4.47;;;27.20;90.30;;;;;;5044689;28;20020;-47
2021/09/19 12:24:36;;;;;;;15.63;5.03;;;27.20;90.40;;;;;;5044441;28;20084;-46
2021/09/19 12:27:13;;;;;;;13.48;4.97;;;27.20;90.40;;;;;;5044709;28;20025;-45
2021/09/19 12:29:41;;;;;;;17.00;5.43;;;27.20;90.40;;;;;;5044216;28;20029;-49
2021/09/19 12:32:08;;;;;;;13.57;5.28;;;27.30;90.40;;;;;;5044695;28;20048;-46
2021/09/19 12:34:35;;;;;;;30.63;7.18;;;27.30;90.40;;;;;;5044177;28;20049;-51
2021/09/19 12:37:02;;;;;;;32.92;7.70;;;27.30;90.40;;;;;;5044446;28;20314;-45
2021/09/19 12:39:33;;;;;;;14.48;4.97;;;27.30;90.40;;;;;;5044248;28;20421;-46
2021/09/19 12:42:03;;;;;;;32.17;5.70;;;27.40;90.50;;;;;;5044341;28;20021;-54
2021/09/19 12:44:35;;;;;;;46.30;8.43;;;27.30;90.40;;;;;;5044224;28;20084;-50
2021/09/19 12:47:08;;;;;;;19.52;6.05;;;27.40;90.50;;;;;;5044460;28;20031;-55